Time;durP1;ratioP1;P1;durP2;ratioP2;P2;SDS_P1;SDS_P2;PMS_P1;PMS_P2;Temp;Humidity;BMP_temperature;BMP_pressure;BME280_temperature;BME280_humidity;BME280_pressure;Samples;Min_cycle;Max_cycle;Signal;HPM_P1;HPM_P2
2023/04/25 00:02:17;;;;;;;7.72;5.20;;;;;;;11.40;70.67;97440.22;5009726;28;20026;-66
2023/04/25 00:04:43;;;;;;;8.70;5.20;;;;;;;11.34;71.00;97447.00;5009686;28;20038;-66
2023/04/25 00:07:09;;;;;;;7.60;5.43;;;;;;;11.29;70.60;97440.56;4992289;28;20465;-66
2023/04/25 00:09:34;;;;;;;6.72;4.93;;;;;;;11.27;70.86;97444.75;5012686;28;20087;-66
2023/04/25 00:12:01;;;;;;;5.82;5.05;;;;;;;11.25;71.23;97452.50;5013067;28;20022;-65
2023/04/25 00:14:27;;;;;;;6.78;4.68;;;;;;;11.22;71.06;97451.22;5012120;28;20030;-66
2023/04/25 00:16:54;;;;;;;5.93;4.20;;;;;;;11.17;71.21;97454.16;4995409;28;20030;-66
2023/04/25 00:19:19;;;;;;;5.13;4.30;;;;;;;11.10;71.76;97451.09;5012961;28;20022;-66
2023/04/25 00:21:46;;;;;;;5.32;3.85;;;;;;;11.02;70.67;97456.25;5012829;28;20097;-66
2023/04/25 00:24:12;;;;;;;5.93;4.32;;;;;;;10.92;71.50;97450.28;5010248;28;20533;-66
2023/04/25 00:26:37;;;;;;;6.85;4.10;;;;;;;10.85;71.02;97459.00;5011548;28;20109;-66
2023/04/25 00:29:03;;;;;;;7.38;4.20;;;;;;;10.79;71.11;97457.56;5011437;28;20374;-66
2023/04/25 00:31:28;;;;;;;5.45;4.03;;;;;;;10.76;71.79;97461.75;5011453;28;20037;-66
2023/04/25 00:33:54;;;;;;;5.78;3.88;;;;;;;10.75;71.05;97462.06;5011217;28;20019;-68
2023/04/25 00:36:20;;;;;;;6.20;3.88;;;;;;;10.76;72.40;97460.94;5011626;28;20112;-66
2023/04/25 00:38:45;;;;;;;6.38;3.95;;;;;;;10.76;71.03;97456.25;5011667;28;20022;-66
2023/04/25 00:41:11;;;;;;;5.65;3.90;;;;;;;10.79;71.03;97458.34;4993576;28;20349;-65
2023/04/25 00:43:37;;;;;;;5.95;3.75;;;;;;;10.78;71.36;97459.47;5011188;28;20049;-66
2023/04/25 00:46:03;;;;;;;7.03;4.38;;;;;;;10.79;70.46;97458.34;4993844;28;20034;-66
2023/04/25 00:48:28;;;;;;;5.88;4.43;;;;;;;10.78;71.12;97447.72;5011180;28;20030;-66
2023/04/25 00:50:56;;;;;;;6.97;4.13;;;;;;;10.77;70.79;97449.63;5011028;28;20028;-66
2023/04/25 00:53:22;;;;;;;7.10;4.55;;;;;;;10.77;71.94;97459.81;5011053;28;20123;-66
2023/04/25 00:55:50;;;;;;;5.40;4.35;;;;;;;10.76;70.82;97448.03;5011282;28;20026;-66
2023/04/25 00:58:17;;;;;;;5.43;3.90;;;;;;;10.75;71.57;97451.09;5007764;28;20771;-66
2023/04/25 01:00:43;;;;;;;4.60;3.28;;;;;;;10.69;71.04;97456.75;5010807;28;20026;-66
2023/04/25 01:03:10;;;;;;;5.47;3.17;;;;;;;10.67;71.68;97456.25;5010474;28;20556;-66
2023/04/25 01:05:35;;;;;;;5.63;3.58;;;;;;;10.61;71.01;97459.47;5010994;28;20026;-66
2023/04/25 01:08:01;;;;;;;7.90;3.65;;;;;;;10.57;71.47;97467.53;5010338;28;20397;-66
2023/04/25 01:10:26;;;;;;;5.20;2.97;;;;;;;10.50;70.98;97464.44;5011423;28;20106;-67
2023/04/25 01:12:51;;;;;;;6.25;3.30;;;;;;;10.43;70.31;97465.72;4994553;28;20026;-67
2023/04/25 01:15:17;;;;;;;5.05;3.20;;;;;;;10.41;71.26;97462.50;5012153;28;20476;-66
2023/04/25 01:17:43;;;;;;;5.25;2.95;;;;;;;10.37;70.63;97468.91;5012153;28;20030;-67
2023/04/25 01:20:11;;;;;;;5.45;3.38;;;;;;;10.35;71.34;97471.16;5011191;28;20172;-67
2023/04/25 01:22:36;;;;;;;4.53;3.25;;;;;;;10.32;71.10;97474.53;5012022;28;20037;-67
2023/04/25 01:25:02;;;;;;;6.72;3.38;;;;;;;10.26;70.48;97476.63;5011965;28;20455;-66
2023/04/25 01:27:28;;;;;;;3.47;2.70;;;;;;;10.24;71.26;97476.16;5011743;28;20479;-66
2023/04/25 01:29:54;;;;;;;4.00;3.00;;;;;;;10.19;70.87;97482.56;5012015;28;20526;-66
2023/04/25 01:32:21;;;;;;;3.67;2.92;;;;;;;10.16;71.01;97476.91;5011794;28;20490;-66
2023/04/25 01:34:46;;;;;;;3.95;2.63;;;;;;;10.09;71.29;97480.13;4994230;28;20430;-67
2023/04/25 01:37:12;;;;;;;3.92;2.67;;;;;;;10.05;70.88;97488.16;5011972;28;20086;-66
2023/04/25 01:39:37;;;;;;;3.92;2.90;;;;;;;10.02;71.02;97490.72;5011638;28;20075;-67
2023/04/25 01:42:03;;;;;;;4.18;3.03;;;;;;;9.98;70.28;97483.16;5011603;28;20041;-66
2023/04/25 01:44:28;;;;;;;4.72;3.22;;;;;;;9.98;71.21;97483.16;5011653;28;20021;-66
2023/04/25 01:46:54;;;;;;;5.60;3.30;;;;;;;9.97;70.85;97486.22;5011504;28;20034;-66
2023/04/25 01:49:20;;;;;;;4.22;3.10;;;;;;;9.96;70.68;97492.81;5011514;28;20022;-66
2023/04/25 01:51:45;;;;;;;3.90;2.70;;;;;;;10.00;71.02;97495.72;5011565;28;20629;-66
2023/04/25 01:54:11;;;;;;;3.78;2.42;;;;;;;9.98;70.98;97494.09;5011691;28;20101;-67
2023/04/25 01:56:38;;;;;;;3.40;2.67;;;;;;;9.95;71.09;97499.41;5011383;28;20037;-66
2023/04/25 01:59:04;;;;;;;3.88;2.63;;;;;;;9.92;70.38;97494.56;5011562;28;20072;-66
2023/04/25 02:01:30;;;;;;;5.00;2.30;;;;;;;9.92;70.52;97497.31;5011357;28;20030;-66
2023/04/25 02:03:55;;;;;;;3.47;2.70;;;;;;;9.91;70.55;97492.94;5011073;28;20080;-66
2023/04/25 02:06:21;;;;;;;3.60;2.20;;;;;;;9.91;71.11;97498.44;5011298;28;20033;-66
2023/04/25 02:08:46;;;;;;;3.22;2.20;;;;;;;9.91;70.73;97495.69;5011261;28;20383;-66
2023/04/25 02:11:12;;;;;;;3.75;2.40;;;;;;;9.88;70.27;97505.34;5011064;28;20065;-66
2023/04/25 02:13:37;;;;;;;3.47;2.60;;;;;;;9.83;70.21;97505.47;5011161;28;20033;-66
2023/04/25 02:16:03;;;;;;;3.75;2.67;;;;;;;9.76;70.12;97500.44;4993580;28;20029;-66
2023/04/25 02:18:28;;;;;;;2.45;2.20;;;;;;;9.73;70.12;97497.53;5011122;28;20132;-66
2023/04/25 02:20:54;;;;;;;2.83;1.90;;;;;;;9.68;70.06;97506.69;5010960;28;20037;-66
2023/04/25 02:23:19;;;;;;;3.92;1.92;;;;;;;9.65;70.31;97501.81;5010982;28;20030;-66
2023/04/25 02:25:45;;;;;;;1.95;1.65;;;;;;;9.65;69.97;97507.31;5009682;28;20026;-66
2023/04/25 02:28:10;;;;;;;1.70;1.60;;;;;;;9.67;70.52;97510.53;5010887;28;20033;-66
2023/04/25 02:30:36;;;;;;;2.10;1.80;;;;;;;9.64;69.31;97503.78;5010688;28;20030;-67
2023/04/25 02:33:01;;;;;;;3.20;1.65;;;;;;;9.60;69.54;97513.72;5010850;28;20026;-66
2023/04/25 02:35:27;;;;;;;1.75;1.40;;;;;;;9.58;69.69;97505.03;4993197;28;20026;-66
2023/04/25 02:37:52;;;;;;;2.22;2.03;;;;;;;9.55;69.57;97508.38;5010812;28;20026;-66
2023/04/25 02:40:18;;;;;;;3.47;1.98;;;;;;;9.53;70.19;97491.47;5011108;28;20022;-66
2023/04/25 02:42:45;;;;;;;2.72;1.90;;;;;;;9.50;69.57;97505.78;5010664;28;20022;-66
2023/04/25 02:45:11;;;;;;;3.05;1.95;;;;;;;9.45;69.37;97509.47;5010779;28;20119;-66
2023/04/25 02:47:36;;;;;;;2.10;1.88;;;;;;;9.45;69.45;97508.63;4993420;28;20112;-66
2023/04/25 02:50:02;;;;;;;2.50;1.70;;;;;;;9.45;70.22;97511.38;5010559;28;20026;-66
2023/04/25 02:52:27;;;;;;;4.53;1.70;;;;;;;9.42;69.47;97504.59;5010739;28;20080;-67
2023/04/25 02:54:52;;;;;;;2.30;1.60;;;;;;;9.42;69.26;97512.00;5010529;28;20357;-66
2023/04/25 02:57:18;;;;;;;2.05;1.60;;;;;;;9.43;69.25;97505.41;5010572;28;20472;-65
2023/04/25 02:59:43;;;;;;;2.60;1.48;;;;;;;9.42;69.58;97510.06;5007993;28;20078;-66
2023/04/25 03:02:09;;;;;;;4.18;1.60;;;;;;;9.40;69.47;97504.09;5009697;28;20029;-66
2023/04/25 03:04:35;;;;;;;1.98;1.67;;;;;;;9.40;69.36;97495.91;5009258;28;20038;-66
2023/04/25 03:07:00;;;;;;;3.10;1.65;;;;;;;9.38;69.16;97509.88;5010761;28;20038;-67
2023/04/25 03:09:26;;;;;;;2.05;1.55;;;;;;;9.34;69.46;97503.44;5009798;28;20428;-66
2023/04/25 03:11:51;;;;;;;1.80;1.70;;;;;;;9.31;68.94;97503.22;5010342;28;20033;-65
2023/04/25 03:14:17;;;;;;;2.92;1.80;;;;;;;9.27;69.70;97505.78;4992815;28;20087;-65
2023/04/25 03:16:42;;;;;;;2.20;2.00;;;;;;;9.25;69.16;97510.78;5010417;28;20057;-65
2023/04/25 03:19:08;;;;;;;3.10;1.95;;;;;;;9.21;68.81;97510.56;4992789;28;20037;-66
2023/04/25 03:21:34;;;;;;;2.10;1.75;;;;;;;9.21;69.22;97507.03;5010090;28;20035;-67
2023/04/25 03:24:02;;;;;;;2.85;2.30;;;;;;;9.20;69.06;97508.94;5010292;28;20046;-66
2023/04/25 03:26:28;;;;;;;2.55;1.80;;;;;;;9.24;68.82;97512.69;5010145;28;20051;-66
2023/04/25 03:28:53;;;;;;;2.10;1.90;;;;;;;9.25;68.93;97510.78;4992686;28;20444;-66
2023/04/25 03:31:18;;;;;;;1.65;1.52;;;;;;;9.27;69.54;97511.28;4992624;28;20071;-65
2023/04/25 03:33:44;;;;;;;2.45;1.77;;;;;;;9.29;68.62;97514.50;5010339;28;20410;-66
2023/04/25 03:36:09;;;;;;;3.95;2.47;;;;;;;9.30;68.95;97505.19;5010163;28;20049;-66
2023/04/25 03:38:35;;;;;;;4.07;2.50;;;;;;;9.32;69.28;97510.31;4993004;28;20015;-66
2023/04/25 03:41:02;;;;;;;3.60;2.35;;;;;;;9.30;69.08;97510.66;5008736;28;20040;-66
2023/04/25 03:43:27;;;;;;;3.10;1.98;;;;;;;9.30;69.06;97504.34;5011451;28;20486;-66
2023/04/25 03:45:52;;;;;;;1.83;1.50;;;;;;;9.32;68.88;97513.88;5013359;28;20033;-66
2023/04/25 03:48:19;;;;;;;4.53;1.80;;;;;;;9.30;68.44;97516.13;5013464;28;20038;-66
2023/04/25 03:50:44;;;;;;;1.92;1.75;;;;;;;9.29;69.29;97509.03;5013333;28;20034;-66
2023/04/25 03:53:09;;;;;;;2.10;1.80;;;;;;;9.27;68.67;97510.44;5013296;28;20382;-66
2023/04/25 03:55:35;;;;;;;3.30;2.10;;;;;;;9.24;68.75;97518.16;5013259;28;20079;-66
2023/04/25 03:58:00;;;;;;;3.15;2.40;;;;;;;9.22;69.21;97520.38;5013359;28;20045;-66
2023/04/25 04:00:26;;;;;;;2.55;1.95;;;;;;;9.25;68.77;97518.97;5013212;28;20030;-66
2023/04/25 04:02:51;;;;;;;2.38;2.00;;;;;;;9.28;68.70;97520.28;5013048;28;20046;-66
2023/04/25 04:05:16;;;;;;;2.33;2.00;;;;;;;9.26;68.38;97522.50;5013409;28;20036;-66
2023/04/25 04:07:42;;;;;;;50.42;24.48;;;;;;;9.26;69.12;97523.34;5013032;28;20034;-66
2023/04/25 04:10:09;;;;;;;80.88;28.70;;;;;;;9.29;68.84;97525.44;5013060;28;20048;-66
2023/04/25 04:12:34;;;;;;;17.88;7.65;;;;;;;9.31;68.34;97528.69;5012938;28;20037;-66
2023/04/25 04:15:00;;;;;;;8.18;4.32;;;;;;;9.31;68.57;97525.13;5012994;28;20030;-66
2023/04/25 04:17:25;;;;;;;3.75;2.45;;;;;;;9.32;68.52;97527.56;5012820;28;20101;-66
2023/04/25 04:19:51;;;;;;;8.35;3.40;;;;;;;9.34;68.52;97530.81;5013048;28;20029;-66
2023/04/25 04:22:16;;;;;;;3.05;2.30;;;;;;;9.34;68.81;97535.44;5012941;28;20436;-66
2023/04/25 04:24:43;;;;;;;3.90;2.63;;;;;;;9.35;68.98;97537.91;5013043;28;20029;-66
2023/04/25 04:27:09;;;;;;;8.82;3.63;;;;;;;9.36;68.32;97538.69;5012782;28;20033;-65
2023/04/25 04:29:34;;;;;;;11.38;4.55;;;;;;;9.36;68.04;97533.22;5012680;28;20022;-66
2023/04/25 04:32:01;;;;;;;6.10;3.25;;;;;;;9.38;68.30;97539.19;5012816;28;20108;-65
2023/04/25 04:34:27;;;;;;;3.90;2.70;;;;;;;9.39;67.83;97535.31;5012473;28;20436;-66
2023/04/25 04:36:52;;;;;;;4.38;2.30;;;;;;;9.42;68.31;97537.44;5012636;28;20065;-66
2023/04/25 04:39:17;;;;;;;11.93;6.97;;;;;;;9.45;68.18;97536.81;5012642;28;20033;-66
2023/04/25 04:41:43;;;;;;;6.38;4.05;;;;;;;9.52;68.38;97544.59;5012441;28;20030;-66
2023/04/25 04:44:08;;;;;;;5.05;3.20;;;;;;;9.56;68.69;97542.84;5012421;28;20030;-66
2023/04/25 04:46:37;;;;;;;5.43;2.70;;;;;;;9.58;68.07;97542.56;5012382;28;20494;-66
2023/04/25 04:49:04;;;;;;;4.72;2.40;;;;;;;9.58;68.73;97545.28;4994895;28;20033;-66
2023/04/25 04:51:31;;;;;;;12.27;4.15;;;;;;;9.56;67.59;97537.38;5012441;28;20022;-66
2023/04/25 04:53:58;;;;;;;11.73;5.10;;;;;;;9.57;67.86;97532.72;5011813;28;20105;-66
2023/04/25 04:56:25;;;;;;;25.55;10.85;;;;;;;9.55;67.68;97538.50;4994072;28;20037;-65
2023/04/25 04:58:50;;;;;;;19.27;7.35;;;;;;;9.55;67.84;97534.97;5012138;28;20022;-66
2023/04/25 05:01:16;;;;;;;26.45;9.50;;;;;;;9.52;67.38;97536.38;5012108;28;20472;-66
2023/04/25 05:03:41;;;;;;;23.33;8.90;;;;;;;9.47;67.94;97533.75;5012001;28;20042;-65
2023/04/25 05:06:08;;;;;;;22.42;8.27;;;;;;;9.46;67.35;97537.63;5012434;28;20384;-64
2023/04/25 05:08:34;;;;;;;60.88;15.00;;;;;;;9.44;67.06;97546.16;4994586;28;20026;-66
2023/04/25 05:10:59;;;;;;;42.45;12.27;;;;;;;9.42;67.33;97544.84;5012252;28;20029;-66
2023/04/25 05:13:24;;;;;;;24.38;7.50;;;;;;;9.41;67.53;97548.69;5012111;28;20086;-66
2023/04/25 05:15:50;;;;;;;27.25;7.82;;;;;;;9.45;67.69;97541.47;5012104;28;20131;-66
2023/04/25 05:18:15;;;;;;;28.73;9.35;;;;;;;9.47;67.55;97542.81;5011935;28;20163;-65
2023/04/25 05:20:41;;;;;;;47.88;11.73;;;;;;;9.50;67.68;97541.34;5011945;28;20387;-65
2023/04/25 05:23:06;;;;;;;53.00;12.73;;;;;;;9.54;67.43;97545.09;5011952;28;20026;-66
2023/04/25 05:25:31;;;;;;;84.70;27.13;;;;;;;9.59;67.48;97541.41;5011948;28;20033;-66
2023/04/25 05:27:58;;;;;;;40.78;12.63;;;;;;;9.60;67.18;97541.09;5011749;28;20120;-66
2023/04/25 05:30:23;;;;;;;34.50;10.68;;;;;;;9.61;67.33;97537.25;5011830;28;20030;-65
2023/04/25 05:32:48;;;;;;;39.00;11.73;;;;;;;9.63;67.48;97539.66;5011760;28;20029;-65
2023/04/25 05:35:14;;;;;;;22.70;7.20;;;;;;;9.63;66.81;97539.66;5011770;28;20127;-65
2023/04/25 05:37:39;;;;;;;10.80;4.70;;;;;;;9.63;66.77;97534.19;5011713;28;20026;-65
2023/04/25 05:40:06;;;;;;;18.98;6.40;;;;;;;9.63;67.51;97543.22;4994080;28;20030;-65
2023/04/25 05:42:32;;;;;;;12.63;5.13;;;;;;;9.64;66.53;97539.38;5011769;28;20046;-66
2023/04/25 05:44:57;;;;;;;10.77;4.50;;;;;;;9.69;66.66;97546.63;5011603;28;20051;-66
2023/04/25 05:47:23;;;;;;;20.15;7.82;;;;;;;9.74;66.96;97545.72;5011620;28;20032;-66
2023/04/25 05:49:48;;;;;;;20.58;7.65;;;;;;;9.75;67.08;97541.84;5011541;28;20029;-65
2023/04/25 05:52:14;;;;;;;7.30;4.00;;;;;;;9.75;66.91;97537.16;5011539;28;20060;-65
2023/04/25 05:54:40;;;;;;;8.13;4.38;;;;;;;9.76;66.61;97544.25;5010139;28;20033;-66
2023/04/25 05:57:06;;;;;;;11.15;4.55;;;;;;;9.80;66.55;97537.03;5011589;28;20033;-66
2023/04/25 05:59:31;;;;;;;5.07;3.28;;;;;;;9.83;66.06;97547.38;5011415;28;20032;-65
2023/04/25 06:01:57;;;;;;;7.78;4.45;;;;;;;9.86;66.49;97550.59;5010455;28;20113;-65
2023/04/25 06:04:22;;;;;;;9.55;4.47;;;;;;;9.88;66.15;97542.88;5011152;28;20073;-66
2023/04/25 06:06:47;;;;;;;7.70;4.57;;;;;;;9.87;66.24;97553.00;5010492;28;20030;-66
2023/04/25 06:09:13;;;;;;;8.07;4.15;;;;;;;9.88;66.10;97553.84;5010500;28;20483;-66
2023/04/25 06:11:38;;;;;;;7.35;3.78;;;;;;;9.92;66.18;97550.13;5010890;28;20030;-66
2023/04/25 06:14:04;;;;;;;7.30;3.75;;;;;;;9.91;65.81;97548.53;5011190;28;20036;-65
2023/04/25 06:16:29;;;;;;;8.23;4.22;;;;;;;9.93;66.09;97545.50;4993499;28;20069;-66
2023/04/25 06:18:55;;;;;;;7.68;4.18;;;;;;;9.94;65.04;97544.38;5010847;28;20102;-65
2023/04/25 06:21:20;;;;;;;7.97;3.90;;;;;;;9.93;65.94;97548.22;5010390;28;20422;-66
2023/04/25 06:23:45;;;;;;;5.57;3.50;;;;;;;9.92;65.04;97552.88;5011015;28;20037;-65
2023/04/25 06:26:11;;;;;;;7.43;3.63;;;;;;;9.91;65.15;97554.00;5008954;28;20111;-66
2023/04/25 06:28:36;;;;;;;4.50;3.03;;;;;;;9.91;65.21;97554.00;5010545;28;20033;-66
2023/04/25 06:31:01;;;;;;;10.00;3.50;;;;;;;9.97;64.71;97549.22;5010396;28;20033;-65
2023/04/25 06:33:27;;;;;;;8.60;4.20;;;;;;;9.98;64.51;97553.56;5010399;28;20497;-65
2023/04/25 06:35:52;;;;;;;9.02;4.80;;;;;;;9.98;65.02;97546.16;5010295;28;20094;-65
2023/04/25 06:38:18;;;;;;;8.05;3.97;;;;;;;10.03;64.79;97550.66;4992213;28;20110;-66
2023/04/25 06:40:43;;;;;;;9.77;4.30;;;;;;;10.09;64.79;97549.41;5010256;28;20022;-65
2023/04/25 06:43:08;;;;;;;13.63;5.72;;;;;;;10.16;64.00;97545.41;5010269;28;20086;-66
2023/04/25 06:45:34;;;;;;;7.25;4.18;;;;;;;10.19;64.51;97544.78;4992752;28;20061;-66
2023/04/25 06:47:59;;;;;;;7.15;4.22;;;;;;;10.23;64.56;97554.78;5010073;28;20034;-65
2023/04/25 06:50:25;;;;;;;9.70;5.00;;;;;;;10.28;64.21;97537.41;5010249;28;20030;-65
2023/04/25 06:52:50;;;;;;;7.50;4.38;;;;;;;10.31;64.22;97545.00;5010091;28;20055;-65
2023/04/25 06:55:15;;;;;;;7.63;3.63;;;;;;;10.33;64.10;97542.75;5009999;28;20030;-66
2023/04/25 06:57:41;;;;;;;7.13;4.18;;;;;;;10.36;64.03;97546.78;5009819;28;20040;-66
2023/04/25 07:00:09;;;;;;;6.78;4.10;;;;;;;10.41;63.71;97538.44;5008226;28;20650;-65
2023/04/25 07:02:34;;;;;;;7.72;4.40;;;;;;;10.49;63.60;97545.06;5022170;28;20047;-65
2023/04/25 07:05:00;;;;;;;10.73;4.63;;;;;;;10.54;63.79;97533.97;5054600;28;20029;-65
2023/04/25 07:07:26;;;;;;;7.13;4.22;;;;;;;10.59;63.80;97539.31;5053748;28;20034;-65
2023/04/25 07:09:52;;;;;;;11.73;5.45;;;;;;;10.65;63.75;97542.69;5006566;28;20376;-65
2023/04/25 07:12:17;;;;;;;11.00;4.97;;;;;;;10.68;62.90;97542.06;5007315;28;20117;-65
2023/04/25 07:14:42;;;;;;;9.48;4.63;;;;;;;10.70;63.34;97537.88;5004827;28;20038;-65
2023/04/25 07:17:08;;;;;;;6.88;3.92;;;;;;;10.76;63.36;97538.53;5006124;28;20179;-65
2023/04/25 07:19:34;;;;;;;7.05;4.10;;;;;;;10.80;63.17;97538.72;5010219;28;20059;-65
2023/04/25 07:22:00;;;;;;;8.63;4.68;;;;;;;10.86;62.26;97545.63;4992755;28;20459;-65
2023/04/25 07:24:25;;;;;;;8.10;4.30;;;;;;;10.87;62.41;97545.34;4992759;28;20022;-66
2023/04/25 07:26:51;;;;;;;5.63;3.72;;;;;;;10.92;62.65;97543.56;5010988;28;20471;-67
2023/04/25 07:29:17;;;;;;;5.85;3.20;;;;;;;10.97;61.77;97548.91;5017097;28;20034;-67
2023/04/25 07:31:43;;;;;;;6.72;3.30;;;;;;;11.01;62.48;97544.34;5010149;28;20156;-65
2023/04/25 07:34:08;;;;;;;6.25;3.65;;;;;;;11.07;62.42;97545.81;5011258;28;20025;-66
2023/04/25 07:36:34;;;;;;;6.93;3.80;;;;;;;11.14;62.22;97548.91;5010700;28;20475;-66
2023/04/25 07:38:59;;;;;;;5.97;4.07;;;;;;;11.17;62.01;97544.72;5017263;28;20589;-65
2023/04/25 07:41:25;;;;;;;8.10;3.70;;;;;;;11.22;61.32;97543.72;5009536;28;20394;-65
2023/04/25 07:43:50;;;;;;;8.25;4.28;;;;;;;11.25;61.68;97543.88;5010455;28;20034;-66
2023/04/25 07:46:15;;;;;;;6.55;3.60;;;;;;;11.31;60.81;97539.06;5009270;28;20010;-65
2023/04/25 07:48:41;;;;;;;6.53;3.38;;;;;;;11.37;61.27;97546.00;5010466;28;20032;-65
2023/04/25 07:51:07;;;;;;;5.97;2.97;;;;;;;11.42;60.50;97542.28;5010364;28;20024;-65
2023/04/25 07:53:34;;;;;;;4.00;2.97;;;;;;;11.43;60.65;97541.94;5009156;28;20014;-66
2023/04/25 07:56:00;;;;;;;4.28;2.83;;;;;;;11.46;59.88;97549.53;5010816;28;20022;-65
2023/04/25 07:58:25;;;;;;;4.78;2.50;;;;;;;11.50;59.92;97546.13;5000351;28;20026;-66
2023/04/25 08:00:51;;;;;;;4.00;2.60;;;;;;;11.51;59.50;97545.00;5010411;28;20033;-66
2023/04/25 08:03:16;;;;;;;3.10;2.55;;;;;;;11.50;58.72;97546.13;5008870;28;20099;-66
2023/04/25 08:05:41;;;;;;;3.42;2.30;;;;;;;11.52;59.14;97547.44;4992824;28;20026;-65
2023/04/25 08:08:07;;;;;;;3.15;2.65;;;;;;;11.54;58.58;97542.44;5009348;28;20501;-65
2023/04/25 08:10:33;;;;;;;3.63;2.65;;;;;;;11.57;58.42;97551.94;5000949;28;20033;-64
2023/04/25 08:12:59;;;;;;;4.25;2.80;;;;;;;11.61;58.89;97542.72;5016563;28;20030;-65
2023/04/25 08:15:25;;;;;;;4.35;2.65;;;;;;;11.68;58.22;97546.91;5010434;28;20027;-65
2023/04/25 08:17:50;;;;;;;5.97;4.13;;;;;;;11.76;58.78;97540.59;5021149;28;20060;-65
2023/04/25 08:20:16;;;;;;;4.55;2.60;;;;;;;11.85;58.32;97543.31;5010233;28;20540;-66
2023/04/25 08:22:42;;;;;;;4.95;2.65;;;;;;;11.91;58.81;97547.50;5009094;28;20033;-65
2023/04/25 08:25:08;;;;;;;3.65;2.45;;;;;;;11.94;58.03;97546.84;5012506;28;20079;-65
2023/04/25 08:27:33;;;;;;;3.97;2.40;;;;;;;11.90;55.92;97552.22;5009293;28;20022;-65
2023/04/25 08:29:59;;;;;;;2.78;2.17;;;;;;;11.85;56.09;97544.13;5011249;28;20030;-66
2023/04/25 08:32:25;;;;;;;4.60;2.40;;;;;;;11.82;55.04;97558.53;5009998;28;20034;-65
2023/04/25 08:34:53;;;;;;;4.78;2.95;;;;;;;11.76;55.83;97541.41;4993758;28;20029;-66
2023/04/25 08:37:19;;;;;;;5.63;3.05;;;;;;;11.79;55.68;97550.94;5010229;28;20038;-65
2023/04/25 08:39:45;;;;;;;6.85;4.15;;;;;;;11.86;55.37;97553.19;5010871;28;20600;-64
2023/04/25 08:42:12;;;;;;;10.68;5.05;;;;;;;11.91;54.98;97558.50;5011429;28;20030;-65
2023/04/25 08:44:37;;;;;;;4.72;2.67;;;;;;;11.94;54.21;97551.56;5011879;28;20471;-67
2023/04/25 08:47:04;;;;;;;2.58;1.90;;;;;;;11.96;55.01;97554.78;5011803;28;20045;-66
2023/04/25 08:49:33;;;;;;;5.47;2.53;;;;;;;12.01;54.40;97555.44;5010438;28;20046;-66
2023/04/25 08:52:06;;;;;;;3.47;2.00;;;;;;;12.02;54.32;97548.00;5009056;28;20030;-66
2023/04/25 08:54:32;;;;;;;2.38;1.60;;;;;;;12.05;54.58;97550.09;5009898;28;20096;-66
2023/04/25 08:57:01;;;;;;;2.80;1.67;;;;;;;12.08;54.00;97554.13;4991255;28;20067;-67
2023/04/25 08:59:28;;;;;;;3.25;1.50;;;;;;;12.12;54.10;97538.59;5009555;28;20058;-66
2023/04/25 09:01:53;;;;;;;4.50;2.22;;;;;;;12.18;53.71;97551.81;5008794;28;20387;-65
2023/04/25 09:04:20;;;;;;;3.72;1.90;;;;;;;12.22;52.56;97552.00;5009090;28;20046;-65
2023/04/25 09:06:46;;;;;;;3.70;2.42;;;;;;;12.24;53.29;97551.66;5009612;28;20053;-65
2023/04/25 09:09:11;;;;;;;4.82;2.47;;;;;;;12.24;52.84;97552.44;5010477;28;20476;-65
2023/04/25 09:11:37;;;;;;;6.05;2.58;;;;;;;12.24;53.05;97548.91;5011914;28;20067;-65
2023/04/25 09:14:25;;;;;;;3.33;2.25;;;;;;;12.25;52.40;97559.53;5010352;28;20040;-65
2023/04/25 09:16:56;;;;;;;3.03;2.10;;;;;;;12.26;52.80;97555.66;4989611;28;20034;-65
2023/04/25 09:19:23;;;;;;;3.28;2.25;;;;;;;12.30;52.34;97553.09;5011309;28;20030;-65
2023/04/25 09:21:49;;;;;;;3.92;1.95;;;;;;;12.29;52.80;97554.22;5010740;28;20022;-65
2023/04/25 09:24:15;;;;;;;3.35;2.35;;;;;;;12.34;53.13;97551.28;5010013;28;20101;-65
2023/04/25 09:26:40;;;;;;;4.65;2.42;;;;;;;12.38;53.33;97546.75;4993292;28;20032;-65
2023/04/25 09:29:07;;;;;;;4.78;3.38;;;;;;;12.47;53.10;97552.97;5010546;28;20090;-66
2023/04/25 09:31:33;;;;;;;2.55;1.95;;;;;;;12.50;52.52;97541.31;5013455;28;20037;-64
2023/04/25 09:34:02;;;;;;;2.38;1.98;;;;;;;12.47;52.34;97550.22;5010142;28;20101;-65
2023/04/25 09:36:28;;;;;;;3.15;2.38;;;;;;;12.50;52.52;97566.06;5008892;28;20495;-66
2023/04/25 09:38:55;;;;;;;2.78;2.10;;;;;;;12.54;52.30;97552.47;5008947;28;20068;-64
2023/04/25 09:41:24;;;;;;;3.42;2.08;;;;;;;12.53;52.18;97553.63;5009121;28;20022;-66
2023/04/25 09:43:50;;;;;;;4.05;1.95;;;;;;;12.58;52.22;97558.94;4993144;28;20034;-65
2023/04/25 09:46:17;;;;;;;3.08;2.00;;;;;;;12.54;51.47;97558.00;5009841;28;20025;-64
2023/04/25 09:48:49;;;;;;;3.15;1.65;;;;;;;12.49;51.40;97560.91;5009784;28;20033;-64
2023/04/25 09:51:15;;;;;;;2.53;1.65;;;;;;;12.48;51.48;97551.84;5008485;28;20495;-63
2023/04/25 09:53:46;;;;;;;3.13;2.00;;;;;;;12.51;51.61;97548.44;5010508;28;20069;-64
2023/04/25 09:56:12;;;;;;;4.05;2.10;;;;;;;12.57;51.45;97565.56;5011511;28;20026;-63
2023/04/25 09:58:40;;;;;;;3.83;2.60;;;;;;;12.61;51.79;97560.19;5037098;28;20075;-64
2023/04/25 10:01:10;;;;;;;2.83;2.00;;;;;;;12.62;51.46;97565.41;5020217;28;20029;-64
2023/04/25 10:03:39;;;;;;;3.30;2.05;;;;;;;12.59;50.77;97565.22;5010283;28;20099;-64
2023/04/25 10:06:12;;;;;;;3.65;2.30;;;;;;;12.53;50.60;97567.38;5007228;28;20017;-64
2023/04/25 10:08:38;;;;;;;3.53;1.90;;;;;;;12.50;50.97;97563.31;5008713;28;20026;-64
2023/04/25 10:11:06;;;;;;;11.43;6.03;;;;;;;12.53;50.60;97566.56;4991857;28;20029;-64
2023/04/25 10:13:33;;;;;;;4.72;2.60;;;;;;;12.55;50.90;97553.28;5011259;28;20022;-65
2023/04/25 10:16:00;;;;;;;4.38;2.15;;;;;;;12.62;51.14;97559.06;5011130;28;20022;-65
2023/04/25 10:18:30;;;;;;;4.82;2.00;;;;;;;12.65;50.66;97548.19;4993647;28;20037;-64
2023/04/25 10:20:58;;;;;;;2.80;1.95;;;;;;;12.71;50.94;97553.50;5010862;28;20387;-64
2023/04/25 10:23:24;;;;;;;4.35;2.38;;;;;;;12.77;50.82;97553.00;5010949;28;20460;-64
2023/04/25 10:25:51;;;;;;;3.78;1.88;;;;;;;12.82;51.03;97554.75;5009519;28;20053;-64
2023/04/25 10:28:17;;;;;;;6.80;2.40;;;;;;;12.89;50.62;97555.03;5010596;28;20396;-65
2023/04/25 10:31:15;;;;;;;3.40;1.85;;;;;;;12.84;50.04;97560.72;5009972;28;20038;-65
2023/04/25 10:33:42;;;;;;;2.95;2.17;;;;;;;12.82;49.99;97560.25;5012719;28;20048;-65
2023/04/25 10:36:10;;;;;;;5.20;2.58;;;;;;;12.79;49.39;97558.97;5008808;28;20029;-64
2023/04/25 10:38:37;;;;;;;3.92;2.10;;;;;;;12.79;50.06;97558.97;5007396;28;20113;-65
2023/04/25 10:41:04;;;;;;;3.20;1.90;;;;;;;12.86;50.23;97552.94;5006840;28;20026;-65
2023/04/25 10:43:36;;;;;;;3.50;2.03;;;;;;;12.88;49.35;97553.41;5007787;28;20048;-64
2023/04/25 10:46:02;;;;;;;2.60;2.00;;;;;;;12.87;49.91;97556.47;5004618;28;20018;-66
2023/04/25 10:48:30;;;;;;;2.83;1.90;;;;;;;12.88;48.97;97563.59;5008075;28;20121;-66
2023/04/25 10:51:09;;;;;;;2.90;2.20;;;;;;;12.86;49.47;97555.69;5008342;28;20064;-64
2023/04/25 10:53:34;;;;;;;2.20;2.00;;;;;;;12.88;49.35;97552.59;5008122;28;20033;-65
2023/04/25 10:56:00;;;;;;;3.75;2.40;;;;;;;12.89;48.89;97560.53;5009706;28;20034;-65
2023/04/25 10:58:26;;;;;;;2.95;2.03;;;;;;;12.87;48.62;97559.25;5010264;28;20057;-65
2023/04/25 11:00:52;;;;;;;3.80;2.15;;;;;;;12.84;48.46;97557.19;5009939;28;20443;-65
2023/04/25 11:03:21;;;;;;;3.80;2.20;;;;;;;12.82;49.15;97543.75;5009933;28;20045;-65
2023/04/25 11:05:49;;;;;;;3.90;2.28;;;;;;;12.86;49.06;97549.38;5009992;28;20090;-65
2023/04/25 11:08:24;;;;;;;2.60;1.90;;;;;;;12.89;49.02;97555.03;5009616;28;20060;-65
2023/04/25 11:10:49;;;;;;;3.35;2.30;;;;;;;12.90;49.03;97555.81;5009929;28;20503;-65
2023/04/25 11:13:14;;;;;;;2.60;2.30;;;;;;;12.93;49.19;97555.16;5009799;28;20018;-64
2023/04/25 11:15:40;;;;;;;2.70;2.03;;;;;;;12.94;48.86;97554.00;5010074;28;20021;-65
2023/04/25 11:18:06;;;;;;;3.63;2.03;;;;;;;12.90;48.33;97550.31;5009657;28;20056;-64
2023/04/25 11:20:31;;;;;;;2.88;2.28;;;;;;;12.88;48.18;97558.09;5009213;28;20158;-65
2023/04/25 11:22:59;;;;;;;4.30;2.20;;;;;;;12.85;48.79;97564.25;5009339;28;20038;-64
2023/04/25 11:25:25;;;;;;;4.43;2.17;;;;;;;12.84;48.47;97559.94;5009509;28;20495;-64
2023/04/25 11:27:57;;;;;;;3.10;2.17;;;;;;;12.85;48.71;97561.50;4975399;28;20034;-64
2023/04/25 11:30:24;;;;;;;3.63;2.13;;;;;;;12.86;48.55;97555.69;5009649;28;20095;-64
2023/04/25 11:32:50;;;;;;;3.83;2.13;;;;;;;12.85;48.50;97556.00;5009636;28;20360;-65